createdAt,value
2023-02-28T00:00:13.467Z,19.80
2023-02-28T00:02:42.575Z,19.80
2023-02-28T00:05:10.168Z,19.90
2023-02-28T00:07:40.507Z,19.60
2023-02-28T00:10:08.058Z,19.60
2023-02-28T00:12:35.710Z,19.60
2023-02-28T00:15:05.371Z,19.60
2023-02-28T00:17:32.930Z,19.60
2023-02-28T00:20:00.477Z,19.50
2023-02-28T00:22:29.130Z,19.70
2023-02-28T00:24:56.665Z,20.80
2023-02-28T00:27:24.264Z,20.30
2023-02-28T00:29:54.922Z,20.40
2023-02-28T00:32:22.600Z,20.50
2023-02-28T00:34:50.115Z,20.70
2023-02-28T00:37:19.954Z,20.40
2023-02-28T00:39:47.519Z,20.50
2023-02-28T00:42:15.031Z,20.50
2023-02-28T00:44:43.781Z,20.20
2023-02-28T00:47:12.102Z,20.60
2023-02-28T00:49:40.551Z,20.40
2023-02-28T00:52:10.210Z,20.50
2023-02-28T00:54:37.797Z,20.30
2023-02-28T00:57:05.516Z,20.20
2023-02-28T00:59:35.339Z,20.10
2023-02-28T01:02:02.918Z,20.40
2023-02-28T01:04:30.646Z,20.30
2023-02-28T01:07:00.519Z,20.40
2023-02-28T01:09:28.090Z,20.70
2023-02-28T01:11:55.705Z,20.70
2023-02-28T01:14:25.500Z,20.70
2023-02-28T01:16:53.162Z,20.70
2023-02-28T01:19:20.764Z,20.90
2023-02-28T01:21:50.476Z,20.90
2023-02-28T01:24:18.048Z,21.00
2023-02-28T01:26:45.666Z,21.10
2023-02-28T01:29:16.123Z,21.10
2023-02-28T01:31:43.673Z,21.10
2023-02-28T01:34:11.270Z,21.20
2023-02-28T01:36:41.118Z,21.40
2023-02-28T01:39:08.658Z,21.50
2023-02-28T01:41:36.249Z,21.30
2023-02-28T01:44:08.973Z,21.50
2023-02-28T01:46:36.890Z,21.50
2023-02-28T01:49:04.750Z,21.70
2023-02-28T01:51:35.105Z,21.70
2023-02-28T01:54:02.613Z,21.70
2023-02-28T01:56:35.205Z,21.70
2023-02-28T01:59:05.004Z,21.70
2023-02-28T02:01:32.838Z,21.80
2023-02-28T02:04:00.664Z,22.00
2023-02-28T02:06:30.116Z,21.90
2023-02-28T02:08:57.868Z,22.10
2023-02-28T02:14:14.289Z,22.20
2023-02-28T02:16:41.997Z,22.20
2023-02-28T02:19:09.548Z,22.10
2023-02-28T02:21:37.195Z,22.20
2023-02-28T02:24:05.006Z,22.20
2023-02-28T02:26:33.429Z,22.20
2023-02-28T02:29:00.959Z,22.20
2023-02-28T02:31:28.831Z,22.10
2023-02-28T02:33:56.560Z,22.40
2023-02-28T02:36:26.396Z,22.40
2023-02-28T02:38:53.918Z,22.40
2023-02-28T02:41:21.548Z,22.50
2023-02-28T02:43:49.125Z,22.60
2023-02-28T02:46:17.090Z,22.70
2023-02-28T02:48:44.974Z,22.70
2023-02-28T02:51:14.383Z,22.90
2023-02-28T02:53:41.901Z,23.00
2023-02-28T02:56:09.452Z,23.00
2023-02-28T02:58:39.625Z,23.00
2023-02-28T03:01:07.403Z,23.00
2023-02-28T03:03:35.035Z,23.00
2023-02-28T03:06:02.842Z,23.00
2023-02-28T03:08:30.643Z,23.10
2023-02-28T03:10:58.795Z,23.20
2023-02-28T03:13:28.591Z,23.30
2023-02-28T03:15:56.352Z,23.40
2023-02-28T03:18:24.056Z,23.40
2023-02-28T03:20:53.751Z,23.40
2023-02-28T03:23:21.500Z,23.50
2023-02-28T03:25:49.058Z,23.60
2023-02-28T03:28:18.782Z,23.60
2023-02-28T03:30:46.740Z,23.50
2023-02-28T03:33:14.345Z,23.70
2023-02-28T03:35:44.201Z,23.70
2023-02-28T03:38:14.106Z,23.70
2023-02-28T03:40:41.818Z,23.70
2023-02-28T03:43:11.193Z,23.70
2023-02-28T03:45:39.018Z,23.70
2023-02-28T03:48:06.600Z,23.90
2023-02-28T03:50:36.570Z,23.90
2023-02-28T03:53:04.211Z,24.00
2023-02-28T03:55:32.329Z,24.10
2023-02-28T03:58:00.234Z,24.20
2023-02-28T04:00:28.061Z,24.10
2023-02-28T04:02:56.312Z,24.30
2023-02-28T04:05:25.781Z,24.50
2023-02-28T04:07:53.627Z,24.50
2023-02-28T04:10:21.284Z,24.50
2023-02-28T04:12:51.102Z,24.50
2023-02-28T04:15:18.788Z,24.50
2023-02-28T04:17:46.372Z,24.60
2023-02-28T04:20:16.352Z,24.70
2023-02-28T04:22:44.218Z,24.70
2023-02-28T04:25:11.934Z,24.80
2023-02-28T04:27:41.713Z,24.80
2023-02-28T04:30:09.456Z,24.80
2023-02-28T04:32:37.120Z,24.80
2023-02-28T04:35:07.222Z,24.80
2023-02-28T04:37:34.902Z,24.80
2023-02-28T04:40:02.505Z,25.00
2023-02-28T04:42:32.785Z,25.10
2023-02-28T04:45:02.682Z,25.10
2023-02-28T04:47:30.278Z,25.20
2023-02-28T04:50:00.137Z,25.20
2023-02-28T04:52:28.449Z,25.20
2023-02-28T04:54:56.012Z,25.20
2023-02-28T04:57:25.839Z,25.40
2023-02-28T04:59:53.703Z,25.40
2023-02-28T05:02:21.604Z,25.50
2023-02-28T05:04:49.333Z,25.40
2023-02-28T05:07:17.206Z,25.30
2023-02-28T05:09:44.951Z,25.30
2023-02-28T05:12:14.579Z,25.30
2023-02-28T05:14:42.439Z,25.40
2023-02-28T05:17:10.093Z,25.70
2023-02-28T05:19:39.818Z,25.60
2023-02-28T05:22:07.673Z,25.80
2023-02-28T05:24:35.527Z,25.70
2023-02-28T05:27:05.284Z,25.80
2023-02-28T05:29:33.030Z,25.80
2023-02-28T05:32:00.875Z,25.80
2023-02-28T05:34:30.684Z,25.80
2023-02-28T05:36:58.520Z,25.80
2023-02-28T05:39:26.140Z,26.10
2023-02-28T05:41:54.845Z,26.20
2023-02-28T05:44:22.525Z,26.20
2023-02-28T05:46:50.265Z,26.20
2023-02-28T05:49:20.091Z,26.00
2023-02-28T05:51:47.909Z,26.00
2023-02-28T05:54:15.541Z,26.20
2023-02-28T05:56:45.250Z,26.40
2023-02-28T05:59:12.922Z,26.60
2023-02-28T06:01:40.491Z,26.40
2023-02-28T06:04:08.859Z,26.40
2023-02-28T06:06:37.527Z,26.70
2023-02-28T06:09:05.108Z,26.70
2023-02-28T06:11:32.842Z,26.60
2023-02-28T06:14:00.789Z,26.50
2023-02-28T06:16:28.409Z,26.60
2023-02-28T06:18:58.130Z,26.70
2023-02-28T06:21:25.772Z,26.80
2023-02-28T06:23:55.009Z,26.70
2023-02-28T06:26:29.995Z,26.70
2023-02-28T06:28:57.522Z,26.80
2023-02-28T06:31:25.121Z,26.90
2023-02-28T06:33:55.093Z,27.10
2023-02-28T06:36:22.752Z,27.10
2023-02-28T06:38:50.511Z,27.00
2023-02-28T06:41:20.119Z,27.00
2023-02-28T06:43:47.671Z,26.90
2023-02-28T06:46:15.321Z,26.90
2023-02-28T06:48:43.100Z,27.10
2023-02-28T06:51:10.675Z,27.00
2023-02-28T06:53:38.306Z,27.20
2023-02-28T06:56:08.009Z,27.30
2023-02-28T06:58:35.526Z,27.50
2023-02-28T07:01:03.173Z,27.50
2023-02-28T07:03:34.478Z,27.40
2023-02-28T07:06:02.127Z,27.30
2023-02-28T07:08:29.754Z,27.40
2023-02-28T07:10:57.344Z,27.50
2023-02-28T07:13:24.888Z,27.30
2023-02-28T07:15:53.275Z,27.40
2023-02-28T07:18:22.909Z,27.40
2023-02-28T07:20:50.711Z,27.40
2023-02-28T07:23:18.288Z,27.50
2023-02-28T07:25:48.344Z,27.60
2023-02-28T07:28:16.001Z,27.70
2023-02-28T07:30:43.569Z,27.80
2023-02-28T07:33:13.486Z,27.80
2023-02-28T07:35:41.121Z,27.70
2023-02-28T07:38:08.692Z,28.00
2023-02-28T07:40:38.747Z,27.80
2023-02-28T07:43:06.330Z,27.80
2023-02-28T07:45:34.221Z,27.70
2023-02-28T07:48:03.802Z,27.80
2023-02-28T07:50:31.847Z,27.80
2023-02-28T07:52:59.536Z,27.90
2023-02-28T07:55:27.459Z,27.90
2023-02-28T07:57:55.004Z,27.90
2023-02-28T08:00:23.480Z,27.90
2023-02-28T08:02:53.710Z,27.90
2023-02-28T08:05:22.388Z,27.90
2023-02-28T08:07:50.061Z,27.90
2023-02-28T08:10:19.596Z,27.80
2023-02-28T08:12:47.227Z,27.80
2023-02-28T08:15:14.791Z,27.80
2023-02-28T08:17:44.837Z,27.90
2023-02-28T08:20:12.396Z,27.90
2023-02-28T08:22:39.957Z,28.00
2023-02-28T08:25:09.569Z,28.20
2023-02-28T08:27:37.293Z,28.20
2023-02-28T08:30:04.885Z,28.10
2023-02-28T08:32:33.967Z,28.10
2023-02-28T08:35:01.767Z,28.20
2023-02-28T08:37:29.316Z,28.20
2023-02-28T08:39:58.913Z,28.40
2023-02-28T08:42:26.566Z,28.40
2023-02-28T08:44:54.167Z,28.30
2023-02-28T08:47:23.818Z,28.10
2023-02-28T08:49:51.431Z,28.20
2023-02-28T08:52:18.986Z,28.30
2023-02-28T08:54:48.730Z,28.30
2023-02-28T08:57:16.293Z,28.20
2023-02-28T08:59:43.754Z,28.20
2023-02-28T09:02:14.173Z,28.20
2023-02-28T09:04:41.717Z,28.10
2023-02-28T09:07:09.291Z,28.00
2023-02-28T09:09:39.183Z,28.10
2023-02-28T09:12:06.741Z,28.00
2023-02-28T09:14:34.339Z,28.20
2023-02-28T09:19:33.074Z,28.20
2023-02-28T09:22:00.647Z,28.10
2023-02-28T09:24:31.777Z,28.10
2023-02-28T09:27:05.101Z,28.10
2023-02-28T09:29:34.883Z,28.40
2023-02-28T09:32:02.476Z,28.30
2023-02-28T09:34:30.106Z,28.20
2023-02-28T09:37:00.087Z,28.20
2023-02-28T09:39:27.691Z,28.30
2023-02-28T09:41:55.293Z,28.20
2023-02-28T09:44:24.978Z,28.20
2023-02-28T09:46:52.592Z,28.20
2023-02-28T09:49:20.115Z,28.20
2023-02-28T09:51:50.103Z,28.30
2023-02-28T09:54:17.746Z,28.30
2023-02-28T09:56:45.332Z,28.20
2023-02-28T09:59:15.276Z,28.20
2023-02-28T10:01:43.053Z,28.20
2023-02-28T10:04:10.796Z,28.20
2023-02-28T10:06:40.807Z,28.20
2023-02-28T10:09:08.413Z,28.20
2023-02-28T10:11:36.020Z,28.20
2023-02-28T10:14:05.491Z,28.20
2023-02-28T10:16:33.175Z,28.20
2023-02-28T10:19:00.789Z,28.10
2023-02-28T10:21:30.970Z,28.00
2023-02-28T10:23:58.772Z,28.00
2023-02-28T10:26:26.508Z,28.00
2023-02-28T10:28:56.624Z,28.00
2023-02-28T10:31:26.273Z,28.00
2023-02-28T10:33:54.413Z,27.90
2023-02-28T10:36:24.156Z,27.80
2023-02-28T10:38:51.755Z,27.80
2023-02-28T10:41:19.368Z,27.80
2023-02-28T10:43:49.271Z,27.80
2023-02-28T10:46:17.172Z,27.80
2023-02-28T10:48:45.053Z,27.80
2023-02-28T10:51:13.774Z,27.70
2023-02-28T10:53:59.277Z,27.60
2023-02-28T10:56:29.980Z,27.60
2023-02-28T10:58:57.847Z,27.50
2023-02-28T11:01:25.576Z,27.50
2023-02-28T11:03:55.820Z,27.40
2023-02-28T11:06:23.465Z,27.40
2023-02-28T11:08:51.065Z,27.30
2023-02-28T11:11:18.744Z,27.30
2023-02-28T11:13:47.894Z,27.20
2023-02-28T11:16:15.508Z,27.20
2023-02-28T11:18:45.418Z,27.10
2023-02-28T11:21:13.033Z,27.10
2023-02-28T11:23:40.665Z,27.00
2023-02-28T11:26:10.329Z,27.00
2023-02-28T11:28:37.866Z,26.90
2023-02-28T11:31:05.507Z,26.90
2023-02-28T11:33:36.238Z,26.90
2023-02-28T11:36:03.822Z,26.80
2023-02-28T11:38:31.737Z,26.80
2023-02-28T11:41:00.782Z,26.70
2023-02-28T11:43:28.512Z,26.80
2023-02-28T11:45:56.130Z,26.70
2023-02-28T11:48:26.199Z,26.60
2023-02-28T11:50:53.796Z,26.60
2023-02-28T11:53:21.366Z,26.60
2023-02-28T11:55:49.152Z,26.60
2023-02-28T11:58:20.111Z,26.50
2023-02-28T12:00:47.720Z,26.50
2023-02-28T12:03:17.784Z,26.40
2023-02-28T12:05:45.411Z,26.40
2023-02-28T12:08:13.150Z,26.40
2023-02-28T12:10:40.889Z,26.40
2023-02-28T12:13:08.486Z,26.40
2023-02-28T12:15:36.105Z,26.40
2023-02-28T12:18:03.877Z,26.40
2023-02-28T12:20:31.378Z,26.30
2023-02-28T12:22:59.127Z,26.30
2023-02-28T12:25:28.938Z,26.30
2023-02-28T12:27:56.561Z,26.30
2023-02-28T12:30:24.112Z,26.30
2023-02-28T12:32:53.958Z,26.20
2023-02-28T12:35:21.971Z,26.20
2023-02-28T12:37:49.616Z,26.20
2023-02-28T12:40:17.700Z,26.10
2023-02-28T12:42:45.244Z,26.10
2023-02-28T12:45:13.297Z,26.00
2023-02-28T12:47:41.372Z,26.00
2023-02-28T12:50:08.967Z,26.00
2023-02-28T12:52:36.678Z,26.00
2023-02-28T12:55:04.461Z,25.90
2023-02-28T12:57:32.025Z,25.90
2023-02-28T13:00:01.746Z,25.90
2023-02-28T13:02:29.624Z,25.90
2023-02-28T13:04:57.327Z,25.90
2023-02-28T13:07:24.998Z,25.80
2023-02-28T13:09:52.798Z,25.80
2023-02-28T13:12:21.461Z,25.80
2023-02-28T13:14:51.309Z,25.70
2023-02-28T13:17:19.202Z,25.80
2023-02-28T13:19:46.846Z,25.80
2023-02-28T13:22:14.405Z,25.70
2023-02-28T13:24:43.178Z,25.70
2023-02-28T13:27:10.900Z,25.60
2023-02-28T13:29:40.788Z,25.60
2023-02-28T13:32:08.644Z,25.70
2023-02-28T13:34:36.321Z,25.60
2023-02-28T13:37:09.431Z,25.60
2023-02-28T13:39:46.157Z,25.60
2023-02-28T13:42:14.873Z,25.60
2023-02-28T13:44:44.012Z,25.50
2023-02-28T13:47:13.885Z,25.50
2023-02-28T13:49:43.805Z,25.50
2023-02-28T13:52:11.372Z,25.50
2023-02-28T13:54:39.124Z,25.50
2023-02-28T13:57:07.842Z,25.50
2023-02-28T13:59:36.264Z,25.40
2023-02-28T14:02:04.032Z,25.40
2023-02-28T14:04:36.346Z,25.40
2023-02-28T14:07:04.295Z,25.30
2023-02-28T14:09:31.846Z,25.40
2023-02-28T14:12:01.641Z,25.40
2023-02-28T14:14:29.913Z,25.30
2023-02-28T14:16:57.599Z,25.20
2023-02-28T14:19:27.147Z,25.20
2023-02-28T14:21:54.912Z,25.20
2023-02-28T14:24:22.381Z,25.20
2023-02-28T14:26:52.208Z,25.20
2023-02-28T14:29:19.993Z,25.20
2023-02-28T14:31:47.972Z,25.20
2023-02-28T14:34:17.464Z,25.20
2023-02-28T14:36:45.227Z,25.20
2023-02-28T14:39:13.291Z,25.10
2023-02-28T14:41:43.076Z,25.10
2023-02-28T14:44:10.723Z,25.10
2023-02-28T14:46:38.354Z,25.10
2023-02-28T14:49:08.265Z,25.00
2023-02-28T14:51:35.952Z,25.00
2023-02-28T14:54:03.514Z,24.90
2023-02-28T14:56:31.396Z,24.90
2023-02-28T14:58:59.282Z,24.90
2023-02-28T15:04:17.599Z,24.90
2023-02-28T15:06:45.207Z,24.80
2023-02-28T15:09:13.502Z,24.80
2023-02-28T15:11:43.054Z,24.60
2023-02-28T15:14:10.791Z,24.70
2023-02-28T15:16:38.427Z,24.70
2023-02-28T15:19:08.182Z,24.70
2023-02-28T15:21:35.771Z,24.70
2023-02-28T15:24:03.390Z,24.70
2023-02-28T15:26:33.087Z,24.60
2023-02-28T15:29:00.688Z,24.60
2023-02-28T15:31:28.484Z,24.60
2023-02-28T15:33:57.843Z,24.60
2023-02-28T15:36:25.473Z,24.60
2023-02-28T15:38:53.067Z,24.60
2023-02-28T15:41:23.258Z,24.50
2023-02-28T15:43:50.975Z,24.40
2023-02-28T15:46:18.613Z,24.40
2023-02-28T15:48:54.925Z,24.40
2023-02-28T15:51:24.934Z,24.40
2023-02-28T15:53:54.913Z,24.40
2023-02-28T15:56:22.493Z,24.40
2023-02-28T15:58:50.056Z,24.40
2023-02-28T16:01:19.849Z,24.40
2023-02-28T16:03:47.470Z,24.40
2023-02-28T16:06:15.052Z,24.30
2023-02-28T16:08:42.887Z,24.30
2023-02-28T16:11:10.460Z,24.30
2023-02-28T16:13:38.064Z,24.30
2023-02-28T16:16:07.735Z,24.30
2023-02-28T16:18:35.403Z,24.30
2023-02-28T16:21:02.895Z,24.30
2023-02-28T16:23:31.785Z,24.10
2023-02-28T16:26:00.633Z,24.20
2023-02-28T16:28:28.211Z,24.10
2023-02-28T16:30:58.231Z,24.20
2023-02-28T16:33:25.853Z,24.10
2023-02-28T16:35:53.446Z,24.10
2023-02-28T16:38:23.824Z,24.10
2023-02-28T16:40:52.274Z,24.00
2023-02-28T16:43:19.857Z,24.10
2023-02-28T16:45:49.915Z,23.90
2023-02-28T16:48:17.568Z,23.90
2023-02-28T16:50:45.120Z,23.80
2023-02-28T16:53:14.917Z,24.00
2023-02-28T16:55:42.510Z,23.90
2023-02-28T16:58:10.138Z,23.90
2023-02-28T17:00:39.984Z,23.90
2023-02-28T17:03:08.266Z,23.90
2023-02-28T17:05:35.871Z,23.80
2023-02-28T17:08:05.506Z,23.70
2023-02-28T17:10:33.344Z,23.70
2023-02-28T17:13:14.142Z,23.70
2023-02-28T17:15:44.539Z,23.70
2023-02-28T17:18:12.168Z,23.80
2023-02-28T17:20:39.733Z,23.70
2023-02-28T17:23:09.405Z,23.70
2023-02-28T17:25:37.279Z,23.70
2023-02-28T17:28:04.855Z,23.80
2023-02-28T17:30:33.749Z,23.80
2023-02-28T17:33:01.308Z,23.80
2023-02-28T17:35:29.008Z,23.70
2023-02-28T17:37:59.204Z,23.60
2023-02-28T17:40:26.898Z,23.50
2023-02-28T17:42:54.535Z,23.50
2023-02-28T17:45:24.480Z,23.50
2023-02-28T17:47:52.028Z,23.40
2023-02-28T17:50:19.580Z,23.40
2023-02-28T17:52:49.517Z,23.30
2023-02-28T17:55:17.090Z,23.30
2023-02-28T17:57:44.701Z,23.40
2023-02-28T18:00:14.651Z,23.50
2023-02-28T18:02:42.403Z,23.30
2023-02-28T18:05:12.094Z,23.50
2023-02-28T18:07:49.493Z,23.50
2023-02-28T18:10:19.414Z,23.40
2023-02-28T18:12:47.914Z,23.40
2023-02-28T18:15:16.786Z,23.30
2023-02-28T18:17:44.625Z,23.20
2023-02-28T18:20:13.640Z,23.00
2023-02-28T18:22:44.988Z,23.00
2023-02-28T18:25:12.854Z,23.00
2023-02-28T18:27:40.421Z,23.00
2023-02-28T18:30:10.205Z,22.90
2023-02-28T18:32:37.822Z,22.90
2023-02-28T18:35:05.666Z,22.80
2023-02-28T18:37:35.404Z,22.90
2023-02-28T18:40:03.185Z,22.90
2023-02-28T18:42:30.799Z,22.70
2023-02-28T18:45:00.522Z,22.80
2023-02-28T18:47:28.306Z,22.90
2023-02-28T18:49:55.893Z,22.90
2023-02-28T18:52:26.262Z,22.90
2023-02-28T18:54:54.363Z,22.90
2023-02-28T18:57:21.898Z,22.80
2023-02-28T18:59:51.683Z,22.70
2023-02-28T19:02:19.467Z,22.70
2023-02-28T19:04:47.056Z,22.70
2023-02-28T19:07:14.740Z,22.60
2023-02-28T19:09:42.465Z,22.60
2023-02-28T19:12:10.032Z,22.60
2023-02-28T19:14:39.522Z,22.70
2023-02-28T19:17:07.559Z,22.80
2023-02-28T19:19:35.096Z,22.70
2023-02-28T19:22:03.936Z,22.70
2023-02-28T19:24:31.718Z,22.80
2023-02-28T19:26:59.237Z,22.80
2023-02-28T19:29:28.980Z,22.80
2023-02-28T19:31:56.859Z,22.80
2023-02-28T19:34:24.521Z,22.70
2023-02-28T19:36:56.405Z,22.70
2023-02-28T19:39:33.984Z,22.70
2023-02-28T19:42:03.880Z,22.70
2023-02-28T19:44:31.582Z,22.70
2023-02-28T19:47:00.463Z,22.60
2023-02-28T19:49:30.342Z,22.60
2023-02-28T19:51:57.930Z,22.60
2023-02-28T19:54:25.767Z,22.60
2023-02-28T19:56:55.532Z,22.60
2023-02-28T19:59:31.345Z,22.60
2023-02-28T20:02:08.578Z,22.60
2023-02-28T20:04:36.340Z,22.60
2023-02-28T20:07:04.104Z,22.60
2023-02-28T20:09:31.923Z,22.60
2023-02-28T20:12:00.370Z,22.60
2023-02-28T20:14:27.980Z,22.50
2023-02-28T20:16:58.123Z,22.50
2023-02-28T20:19:26.241Z,22.50
2023-02-28T20:21:55.637Z,22.50
2023-02-28T20:24:25.601Z,22.40
2023-02-28T20:26:53.216Z,22.40
2023-02-28T20:29:20.928Z,22.30
2023-02-28T20:31:53.625Z,22.30
2023-02-28T20:34:28.676Z,22.30
2023-02-28T20:36:58.668Z,22.20
2023-02-28T20:39:26.419Z,22.30
2023-02-28T20:41:54.146Z,22.20
2023-02-28T20:44:22.817Z,22.20
2023-02-28T20:46:50.401Z,22.20
2023-02-28T20:49:19.540Z,22.20
2023-02-28T20:51:49.275Z,22.20
2023-02-28T20:54:16.842Z,22.10
2023-02-28T20:56:44.644Z,22.10
2023-02-28T20:59:14.107Z,22.10
2023-02-28T21:01:42.577Z,22.20
2023-02-28T21:04:12.822Z,22.10
2023-02-28T21:06:42.300Z,22.10
2023-02-28T21:09:09.895Z,22.10
2023-02-28T21:11:37.717Z,22.10
2023-02-28T21:14:07.177Z,22.00
2023-02-28T21:16:37.248Z,22.00
2023-02-28T21:19:05.685Z,22.00
2023-02-28T21:21:35.707Z,22.00
2023-02-28T21:24:03.326Z,22.00
2023-02-28T21:26:31.278Z,21.90
2023-02-28T21:29:01.112Z,21.90
2023-02-28T21:31:28.732Z,21.90
2023-02-28T21:33:56.689Z,21.90
2023-02-28T21:36:26.482Z,21.80
2023-02-28T21:38:54.118Z,21.80
2023-02-28T21:41:21.968Z,21.80
2023-02-28T21:43:51.770Z,21.70
2023-02-28T21:46:19.476Z,21.80
2023-02-28T21:48:47.258Z,21.70
2023-02-28T21:51:17.142Z,21.70
2023-02-28T21:53:44.799Z,21.70
2023-02-28T21:56:12.620Z,21.70
2023-02-28T21:58:42.499Z,21.70
2023-02-28T22:01:10.088Z,21.70
2023-02-28T22:03:37.990Z,21.70
2023-02-28T22:06:07.798Z,21.70
2023-02-28T22:08:35.605Z,21.60
2023-02-28T22:11:03.274Z,21.60
2023-02-28T22:13:33.359Z,21.60
2023-02-28T22:16:00.972Z,21.50
2023-02-28T22:18:28.832Z,21.50
2023-02-28T22:20:58.606Z,21.60
2023-02-28T22:23:26.217Z,21.60
2023-02-28T22:25:53.962Z,21.60
2023-02-28T22:28:23.651Z,21.50
2023-02-28T22:30:52.199Z,21.50
2023-02-28T22:33:19.873Z,21.50
2023-02-28T22:35:49.830Z,21.50
2023-02-28T22:38:17.566Z,21.50
2023-02-28T22:40:45.627Z,21.50
2023-02-28T22:43:15.329Z,21.40
2023-02-28T22:45:43.186Z,21.40
2023-02-28T22:48:10.987Z,21.40
2023-02-28T22:50:39.903Z,21.40
2023-02-28T22:53:07.654Z,21.40
2023-02-28T22:55:35.448Z,21.40
2023-02-28T22:58:05.216Z,21.40
2023-02-28T23:00:32.938Z,21.30
2023-02-28T23:03:00.616Z,21.30
2023-02-28T23:05:30.822Z,21.10
2023-02-28T23:07:58.563Z,21.00
2023-02-28T23:10:26.776Z,21.10
2023-02-28T23:12:56.948Z,21.00
2023-02-28T23:15:25.069Z,21.20
2023-02-28T23:17:53.175Z,21.30
2023-02-28T23:20:23.090Z,21.30
2023-02-28T23:22:50.796Z,21.30
2023-02-28T23:25:18.664Z,21.20
2023-02-28T23:27:48.253Z,21.20
2023-02-28T23:30:16.158Z,21.10
2023-02-28T23:32:45.427Z,20.90
2023-02-28T23:35:14.750Z,21.00
2023-02-28T23:37:43.931Z,21.10
2023-02-28T23:40:12.166Z,21.10
2023-02-28T23:42:40.423Z,21.10
2023-02-28T23:45:08.144Z,21.10
2023-02-28T23:47:35.791Z,21.20
2023-02-28T23:50:03.306Z,21.10
2023-02-28T23:52:30.879Z,21.10
2023-02-28T23:54:58.723Z,21.10
2023-02-28T23:57:28.239Z,21.20
2023-02-28T23:59:55.830Z,21.20
